createdAt,value
2022-08-27T00:02:07.209Z,100071.91
2022-08-27T00:04:36.195Z,100071.25
2022-08-27T00:07:05.589Z,100064.78
2022-08-27T00:09:33.563Z,100071.25
2022-08-27T00:12:03.450Z,100067.50
2022-08-27T00:14:31.531Z,100066.88
2022-08-27T00:16:59.588Z,100067.22
2022-08-27T00:19:27.873Z,100059.97
2022-08-27T00:21:55.874Z,100061.63
2022-08-27T00:24:24.137Z,100057.91
2022-08-27T00:26:53.772Z,100064.16
2022-08-27T00:29:23.060Z,100067.69
2022-08-27T00:31:53.519Z,100074.34
2022-08-27T00:34:23.960Z,100068.53
2022-08-27T00:36:53.211Z,100059.22
2022-08-27T00:39:22.024Z,100059.22
2022-08-27T00:41:50.362Z,100063.81
2022-08-27T00:44:18.917Z,100060.16
2022-08-27T00:46:51.430Z,100068.94
2022-08-27T00:49:22.434Z,100065.19
2022-08-27T00:51:57.325Z,100078.53
2022-08-27T00:54:27.139Z,100080.22
2022-08-27T00:56:58.645Z,100081.44
2022-08-27T00:59:31.051Z,100076.03
2022-08-27T01:02:19.799Z,100080.59
2022-08-27T01:04:51.317Z,100086.03
2022-08-27T01:07:20.190Z,100078.53
2022-08-27T01:09:50.123Z,100080.22
2022-08-27T01:12:19.201Z,100074.81
2022-08-27T01:14:48.108Z,100078.19
2022-08-27T01:17:18.449Z,100075.47
2022-08-27T01:19:50.395Z,100080.06
2022-08-27T01:22:29.821Z,100082.09
2022-08-27T01:25:02.668Z,100085.63
2022-08-27T01:27:32.340Z,100083.97
2022-08-27T01:30:00.315Z,100090.22
2022-08-27T01:32:34.633Z,100091.25
2022-08-27T01:35:04.754Z,100093.12
2022-08-27T01:37:33.680Z,100097.63
2022-08-27T01:40:04.873Z,100104.81
2022-08-27T01:42:36.514Z,100112.94
2022-08-27T01:45:08.508Z,100112.47
2022-08-27T01:47:37.928Z,100118.37
2022-08-27T01:50:09.065Z,100120.03
2022-08-27T01:52:37.244Z,100122.37
2022-08-27T01:55:09.379Z,100124.72
2022-08-27T01:57:37.926Z,100122.94
2022-08-27T02:00:08.095Z,100121.91
2022-08-27T02:02:40.205Z,100125.75
2022-08-27T02:05:09.388Z,100129.94
2022-08-27T02:07:37.775Z,100131.25
2022-08-27T02:10:10.070Z,100130.03
2022-08-27T02:12:38.388Z,100129.38
2022-08-27T02:15:07.935Z,100126.50
2022-08-27T02:17:36.334Z,100132.56
2022-08-27T02:20:05.431Z,100128.16
2022-08-27T02:22:33.330Z,100128.81
2022-08-27T02:25:02.136Z,100128.16
2022-08-27T02:27:31.604Z,100125.84
2022-08-27T02:29:59.506Z,100121.25
2022-08-27T02:32:31.726Z,100119.38
2022-08-27T02:35:01.368Z,100120.78
2022-08-27T02:37:30.124Z,100125.34
2022-08-27T02:39:58.439Z,100119.09
2022-08-27T02:42:26.725Z,100119.28
2022-08-27T02:44:55.991Z,100123.88
2022-08-27T02:47:24.111Z,100119.00
2022-08-27T02:49:52.370Z,100118.94
2022-08-27T02:52:25.052Z,100129.28
2022-08-27T02:54:54.415Z,100121.72
2022-08-27T02:57:22.438Z,100128.81
2022-08-27T02:59:50.764Z,100125.47
2022-08-27T03:02:21.222Z,100121.91
2022-08-27T03:04:50.565Z,100122.94
2022-08-27T03:07:20.098Z,100117.44
2022-08-27T03:09:48.051Z,100109.69
2022-08-27T03:12:16.782Z,100111.75
2022-08-27T03:14:45.974Z,100113.78
2022-08-27T03:17:31.736Z,100110.41
2022-08-27T03:20:03.518Z,100116.81
2022-08-27T03:22:31.455Z,100118.03
2022-08-27T03:24:59.575Z,100114.44
2022-08-27T03:27:27.523Z,100112.63
2022-08-27T03:29:55.384Z,100106.47
2022-08-27T03:32:24.168Z,100105.28
2022-08-27T03:34:52.154Z,100096.12
2022-08-27T03:37:21.459Z,100099.88
2022-08-27T03:39:50.013Z,100100.16
2022-08-27T03:42:18.026Z,100104.91
2022-08-27T03:44:45.999Z,100099.50
2022-08-27T03:47:14.346Z,100103.22
2022-08-27T03:49:42.662Z,100106.47
2022-08-27T03:52:10.969Z,100100.72
2022-08-27T03:54:40.688Z,100099.38
2022-08-27T03:57:09.008Z,100097.59
2022-08-27T03:59:37.006Z,100095.53
2022-08-27T04:02:05.859Z,100095.06
2022-08-27T04:04:34.159Z,100098.34
2022-08-27T04:07:02.168Z,100094.97
2022-08-27T04:09:30.454Z,100100.09
2022-08-27T04:11:59.955Z,100097.13
2022-08-27T04:14:27.826Z,100095.50
2022-08-27T04:16:57.105Z,100096.47
2022-08-27T04:19:28.123Z,100093.25
2022-08-27T04:22:01.197Z,100097.47
2022-08-27T04:24:31.185Z,100094.75
2022-08-27T04:27:01.243Z,100094.59
2022-08-27T04:29:30.044Z,100094.09
2022-08-27T04:31:59.163Z,100091.37
2022-08-27T04:34:27.426Z,100097.19
2022-08-27T04:36:57.625Z,100105.56
2022-08-27T04:39:26.521Z,100102.53
2022-08-27T04:41:56.454Z,100105.56
2022-08-27T04:44:27.285Z,100106.53
2022-08-27T04:46:57.083Z,100121.47
2022-08-27T04:49:26.291Z,100115.41
2022-08-27T04:51:54.679Z,100111.50
2022-08-27T04:54:32.347Z,100115.22
2022-08-27T04:57:06.376Z,100118.25
2022-08-27T04:59:37.023Z,100124.69
2022-08-27T05:02:09.228Z,100117.22
2022-08-27T05:04:40.246Z,100116.13
2022-08-27T05:07:10.448Z,100119.50
2022-08-27T05:09:38.758Z,100109.69
2022-08-27T05:12:08.041Z,100118.75
2022-08-27T05:14:38.087Z,100120.69
2022-08-27T05:17:06.472Z,100113.91
2022-08-27T05:19:34.351Z,100115.00
2022-08-27T05:22:02.518Z,100110.88
2022-08-27T05:24:32.318Z,100105.37
2022-08-27T05:27:00.231Z,100112.75
2022-08-27T05:29:31.124Z,100109.69
2022-08-27T05:32:00.398Z,100117.22
2022-08-27T05:34:29.880Z,100125.56
2022-08-27T05:36:58.735Z,100126.84
2022-08-27T05:39:26.680Z,100128.56
2022-08-27T05:41:58.187Z,100126.94
2022-08-27T05:44:42.282Z,100126.84
2022-08-27T05:47:12.023Z,100129.34
2022-08-27T05:49:40.189Z,100128.91
2022-08-27T05:52:12.134Z,100125.72
2022-08-27T05:54:40.809Z,100123.56
2022-08-27T05:57:08.863Z,100125.44
2022-08-27T05:59:54.836Z,100115.00
2022-08-27T06:02:24.830Z,100118.78
2022-08-27T06:04:53.450Z,100123.66
2022-08-27T06:07:21.512Z,100124.66
2022-08-27T06:09:49.620Z,100126.22
2022-08-27T06:12:17.864Z,100126.22
2022-08-27T06:14:45.829Z,100116.41
2022-08-27T06:17:13.902Z,100116.41
2022-08-27T06:19:43.439Z,100121.09
2022-08-27T06:22:11.345Z,100117.66
2022-08-27T06:24:41.401Z,100116.41
2022-08-27T06:27:11.750Z,100117.06
2022-08-27T06:29:40.329Z,100127.34
2022-08-27T06:32:09.438Z,100127.75
2022-08-27T06:34:38.476Z,100129.63
2022-08-27T06:37:08.442Z,100129.41
2022-08-27T06:39:39.230Z,100135.03
2022-08-27T06:42:13.211Z,100137.34
2022-08-27T06:44:41.696Z,100134.06
2022-08-27T06:47:09.948Z,100139.34
2022-08-27T06:49:41.057Z,100129.41
2022-08-27T06:52:10.562Z,100137.75
2022-08-27T06:54:39.831Z,100138.41
2022-08-27T06:57:07.928Z,100142.25
2022-08-27T06:59:36.201Z,100148.72
2022-08-27T07:02:06.667Z,100143.94
2022-08-27T07:04:34.610Z,100148.13
2022-08-27T07:07:03.291Z,100153.50
2022-08-27T07:09:32.927Z,100154.78
2022-08-27T07:12:01.400Z,100158.25
2022-08-27T07:14:34.066Z,100156.66
2022-08-27T07:17:05.726Z,100163.75
2022-08-27T07:19:41.262Z,100158.13
2022-08-27T07:22:10.394Z,100162.28
2022-08-27T07:24:40.160Z,100164.34
2022-08-27T07:27:08.788Z,100163.56
2022-08-27T07:29:36.803Z,100170.56
2022-08-27T07:32:05.657Z,100163.69
2022-08-27T07:34:33.614Z,100167.28
2022-08-27T07:37:01.502Z,100166.16
2022-08-27T07:39:29.711Z,100167.44
2022-08-27T07:42:17.063Z,100173.72
2022-08-27T07:44:45.487Z,100174.84
2022-08-27T07:47:13.626Z,100174.62
2022-08-27T07:49:41.853Z,100177.16
2022-08-27T07:52:10.416Z,100173.41
2022-08-27T07:54:38.432Z,100173.34
2022-08-27T07:57:07.622Z,100172.31
2022-08-27T07:59:35.883Z,100173.91
2022-08-27T08:02:04.606Z,100174.84
2022-08-27T08:04:32.791Z,100176.31
2022-08-27T08:07:00.758Z,100183.91
2022-08-27T08:09:30.658Z,100182.22
2022-08-27T08:11:58.869Z,100181.44
2022-08-27T08:14:28.366Z,100178.31
2022-08-27T08:17:00.144Z,100189.66
2022-08-27T08:19:28.466Z,100193.13
2022-08-27T08:22:03.646Z,100183.56
2022-08-27T08:24:34.868Z,100185.16
2022-08-27T08:27:06.929Z,100189.47
2022-08-27T08:29:38.695Z,100189.78
2022-08-27T08:32:07.808Z,100195.41
2022-08-27T08:34:36.798Z,100194.25
2022-08-27T08:37:06.068Z,100194.81
2022-08-27T08:39:35.734Z,100189.84
2022-08-27T08:42:06.855Z,100199.47
2022-08-27T08:44:38.719Z,100196.84
2022-08-27T08:47:12.131Z,100202.00
2022-08-27T08:49:48.072Z,100200.56
2022-08-27T08:52:31.247Z,100203.22
2022-08-27T08:55:11.151Z,100202.50
2022-08-27T08:57:45.090Z,100195.19
2022-08-27T09:00:15.321Z,100200.31
2022-08-27T09:02:52.293Z,100207.34
2022-08-27T09:05:20.491Z,100206.31
2022-08-27T09:08:28.557Z,100197.16
2022-08-27T09:10:57.435Z,100197.88
2022-08-27T09:13:29.807Z,100200.59
2022-08-27T09:16:02.042Z,100205.38
2022-08-27T09:18:31.387Z,100210.53
2022-08-27T09:21:09.030Z,100210.06
2022-08-27T09:23:49.132Z,100213.31
2022-08-27T09:26:22.991Z,100210.06
2022-08-27T09:29:15.996Z,100207.78
2022-08-27T09:31:46.999Z,100210.41
2022-08-27T09:34:15.924Z,100213.75
2022-08-27T09:36:52.321Z,100213.31
2022-08-27T09:39:20.985Z,100208.72
2022-08-27T09:41:50.891Z,100210.09
2022-08-27T09:44:20.529Z,100211.78
2022-08-27T09:46:55.863Z,100216.81
2022-08-27T09:49:24.631Z,100212.09
2022-08-27T09:51:54.770Z,100214.34
2022-08-27T09:54:33.484Z,100208.38
2022-08-27T09:57:02.302Z,100210.31
2022-08-27T09:59:36.512Z,100203.69
2022-08-27T10:02:15.432Z,100215.78
2022-08-27T10:04:50.485Z,100211.16
2022-08-27T10:07:27.126Z,100217.50
2022-08-27T10:10:01.892Z,100219.63
2022-08-27T10:12:36.721Z,100217.81
2022-08-27T10:15:08.152Z,100212.56
2022-08-27T10:17:52.017Z,100217.75
2022-08-27T10:20:30.579Z,100212.47
2022-08-27T10:23:10.782Z,100215.50
2022-08-27T10:25:50.253Z,100213.87
2022-08-27T10:28:31.819Z,100215.25
2022-08-27T10:31:15.540Z,100220.25
2022-08-27T10:33:57.914Z,100215.88
2022-08-27T10:36:35.091Z,100210.91
2022-08-27T10:39:12.368Z,100218.16
2022-08-27T10:41:44.532Z,100214.56
2022-08-27T10:44:37.590Z,100218.34
2022-08-27T10:47:24.171Z,100215.25
2022-08-27T10:50:02.250Z,100222.75
2022-08-27T10:52:37.362Z,100221.94
2022-08-27T10:55:13.220Z,100222.16
2022-08-27T10:58:06.248Z,100227.63
2022-08-27T11:00:44.826Z,100224.06
2022-08-27T11:03:27.396Z,100219.25
2022-08-27T11:06:04.684Z,100221.62
2022-08-27T11:08:39.616Z,100221.41
2022-08-27T11:11:57.111Z,100222.06
2022-08-27T11:14:05.888Z,100220.56
2022-08-27T11:16:41.240Z,100220.13
2022-08-27T11:19:18.991Z,100217.59
2022-08-27T11:21:55.775Z,100213.00
2022-08-27T11:24:34.796Z,100211.97
2022-08-27T11:27:06.557Z,100212.63
2022-08-27T11:29:39.127Z,100216.59
2022-08-27T11:32:17.533Z,100209.87
2022-08-27T11:34:52.655Z,100215.31
2022-08-27T11:37:37.911Z,100219.50
2022-08-27T11:40:31.942Z,100211.53
2022-08-27T11:43:05.428Z,100218.69
2022-08-27T11:45:38.517Z,100214.91
2022-08-27T11:48:19.490Z,100214.47
2022-08-27T11:50:57.081Z,100213.53
2022-08-27T11:53:29.222Z,100218.62
2022-08-27T11:55:58.079Z,100213.63
2022-08-27T11:58:32.298Z,100215.28
2022-08-27T12:01:04.717Z,100218.62
2022-08-27T12:03:37.002Z,100213.84
2022-08-27T12:06:20.447Z,100225.38
2022-08-27T12:08:50.044Z,100217.44
2022-08-27T12:11:32.854Z,100216.78
2022-08-27T12:14:13.591Z,100217.22
2022-08-27T12:16:47.725Z,100217.41
2022-08-27T12:19:30.155Z,100217.63
2022-08-27T12:22:13.436Z,100229.31
2022-08-27T12:24:50.443Z,100231.62
2022-08-27T12:27:34.508Z,100229.06
2022-08-27T12:30:08.508Z,100223.22
2022-08-27T12:32:40.939Z,100229.91
2022-08-27T12:35:13.137Z,100229.91
2022-08-27T12:37:48.361Z,100227.63
2022-08-27T12:40:25.698Z,100227.81
2022-08-27T12:43:06.616Z,100231.16
2022-08-27T12:45:42.777Z,100225.72
2022-08-27T12:48:11.488Z,100220.72
2022-08-27T12:50:39.990Z,100212.72
2022-08-27T12:53:24.722Z,100206.47
2022-08-27T12:56:14.109Z,100211.06
2022-08-27T12:58:51.573Z,100204.81
2022-08-27T13:01:30.314Z,100211.94
2022-08-27T13:04:01.078Z,100204.84
2022-08-27T13:06:33.139Z,100202.75
2022-08-27T13:09:03.316Z,100208.84
2022-08-27T13:11:35.824Z,100203.16
2022-08-27T13:14:10.145Z,100197.28
2022-08-27T13:16:40.145Z,100193.91
2022-08-27T13:19:09.442Z,100199.75
2022-08-27T13:21:37.444Z,100183.91
2022-08-27T13:24:07.567Z,100185.47
2022-08-27T13:26:41.244Z,100167.34
2022-08-27T13:29:10.515Z,100173.13
2022-08-27T13:31:39.251Z,100174.69
2022-08-27T13:34:08.063Z,100173.59
2022-08-27T13:36:58.023Z,100177.91
2022-08-27T13:39:27.178Z,100171.22
2022-08-27T13:42:00.209Z,100177.59
2022-08-27T13:44:32.876Z,100171.03
2022-08-27T13:47:03.780Z,100177.75
2022-08-27T13:49:34.597Z,100168.03
2022-08-27T13:52:24.030Z,100168.53
2022-08-27T13:54:59.786Z,100175.91
2022-08-27T13:57:31.884Z,100168.63
2022-08-27T14:00:10.787Z,100180.88
2022-08-27T14:02:39.138Z,100182.44
2022-08-27T14:05:12.299Z,100184.69
2022-08-27T14:07:44.736Z,100181.97
2022-08-27T14:10:32.556Z,100193.13
2022-08-27T14:13:07.007Z,100178.00
2022-08-27T14:15:38.488Z,100173.31
2022-08-27T14:18:29.011Z,100172.81
2022-08-27T14:21:05.613Z,100185.44
2022-08-27T14:23:33.760Z,100179.13
2022-08-27T14:26:02.766Z,100186.72
2022-08-27T14:28:33.018Z,100185.34
2022-08-27T14:31:01.479Z,100178.34
2022-08-27T14:33:29.590Z,100180.19
2022-08-27T14:35:57.660Z,100185.84
2022-08-27T14:38:30.107Z,100179.94
2022-08-27T14:40:59.462Z,100179.78
2022-08-27T14:43:28.727Z,100180.88
2022-08-27T14:45:58.819Z,100178.53
2022-08-27T14:48:32.136Z,100183.69
2022-08-27T14:51:03.806Z,100175.66
2022-08-27T14:53:31.876Z,100180.53
2022-08-27T14:56:01.754Z,100182.53
2022-08-27T14:58:30.304Z,100184.78
2022-08-27T15:01:00.321Z,100186.56
2022-08-27T15:03:28.526Z,100190.66
2022-08-27T15:05:57.373Z,100195.44
2022-08-27T15:08:32.053Z,100199.31
2022-08-27T15:11:01.195Z,100193.66
2022-08-27T15:13:38.480Z,100201.00
2022-08-27T15:16:08.331Z,100193.06
2022-08-27T15:18:36.286Z,100206.63
2022-08-27T15:21:04.563Z,100208.59
2022-08-27T15:23:32.844Z,100200.38
2022-08-27T15:26:00.802Z,100206.13
2022-08-27T15:28:28.713Z,100220.56
2022-08-27T15:30:56.932Z,100215.53
2022-08-27T15:33:26.610Z,100222.00
2022-08-27T15:35:54.679Z,100224.97
2022-08-27T15:38:23.092Z,100240.28
2022-08-27T15:40:51.646Z,100241.31
2022-08-27T15:43:19.654Z,100236.72
2022-08-27T15:45:47.812Z,100245.31
2022-08-27T15:48:15.871Z,100250.34
2022-08-27T15:50:45.388Z,100244.25
2022-08-27T15:53:14.408Z,100234.22
2022-08-27T15:55:44.401Z,100257.47
2022-08-27T15:58:12.974Z,100258.09
2022-08-27T16:00:42.904Z,100262.31
2022-08-27T16:03:14.289Z,100251.41
2022-08-27T16:05:46.043Z,100258.53
2022-08-27T16:08:15.340Z,100249.91
2022-08-27T16:10:43.288Z,100255.16
2022-08-27T16:13:11.171Z,100255.38
2022-08-27T16:15:40.583Z,100251.38
2022-08-27T16:18:09.200Z,100256.22
2022-08-27T16:20:37.553Z,100248.44
2022-08-27T16:23:07.048Z,100251.56
2022-08-27T16:25:35.155Z,100245.13
2022-08-27T16:28:03.308Z,100243.63
2022-08-27T16:30:31.704Z,100226.66
2022-08-27T16:33:00.016Z,100238.47
2022-08-27T16:35:27.948Z,100243.78
2022-08-27T16:37:56.278Z,100239.34
2022-08-27T16:40:26.409Z,100241.00
2022-08-27T16:42:54.433Z,100245.91
2022-08-27T16:45:24.582Z,100247.41
2022-08-27T16:48:12.478Z,100248.84
2022-08-27T16:50:41.732Z,100249.12
2022-08-27T16:53:15.209Z,100257.09
2022-08-27T16:55:47.897Z,100256.47
2022-08-27T16:58:19.875Z,100256.81
2022-08-27T17:00:52.937Z,100257.87
2022-08-27T17:03:25.712Z,100257.41
2022-08-27T17:05:54.267Z,100254.84
2022-08-27T17:08:26.748Z,100263.28
2022-08-27T17:10:57.561Z,100266.47
2022-08-27T17:13:28.263Z,100267.56
2022-08-27T17:15:57.372Z,100281.28
2022-08-27T17:18:28.192Z,100278.38
2022-08-27T17:20:57.917Z,100272.03
2022-08-27T17:23:33.560Z,100277.94
2022-08-27T17:26:05.431Z,100281.84
2022-08-27T17:28:33.827Z,100288.66
2022-08-27T17:31:02.990Z,100286.09
2022-08-27T17:33:36.236Z,100293.25
2022-08-27T17:36:05.265Z,100298.53
2022-08-27T17:38:34.500Z,100298.19
2022-08-27T17:41:11.614Z,100302.31
2022-08-27T17:43:40.056Z,100299.72
2022-08-27T17:46:08.238Z,100300.19
2022-08-27T17:48:36.547Z,100314.19
2022-08-27T17:51:05.265Z,100305.94
2022-08-27T17:53:33.294Z,100310.81
2022-08-27T17:56:01.476Z,100311.19
2022-08-27T17:58:32.418Z,100313.16
2022-08-27T18:01:00.620Z,100317.16
2022-08-27T18:03:30.186Z,100312.03
2022-08-27T18:06:12.634Z,100310.75
2022-08-27T18:08:40.908Z,100315.72
2022-08-27T18:11:09.937Z,100316.94
2022-08-27T18:13:40.545Z,100318.75
2022-08-27T18:16:09.387Z,100323.34
2022-08-27T18:18:38.266Z,100329.72
2022-08-27T18:21:09.959Z,100322.06
2022-08-27T18:23:38.561Z,100321.03
2022-08-27T18:26:09.722Z,100334.63
2022-08-27T18:28:39.340Z,100335.28
2022-08-27T18:31:09.761Z,100338.09
2022-08-27T18:33:38.667Z,100344.34
2022-08-27T18:36:07.587Z,100340.34
2022-08-27T18:38:35.541Z,100338.53
2022-08-27T18:41:04.014Z,100346.56
2022-08-27T18:43:34.851Z,100345.78
2022-08-27T18:46:05.877Z,100352.22
2022-08-27T18:48:34.655Z,100354.09
2022-08-27T18:51:05.039Z,100352.94
2022-08-27T18:53:36.064Z,100354.94
2022-08-27T18:56:05.091Z,100363.53
2022-08-27T18:58:33.520Z,100364.44
2022-08-27T19:01:03.693Z,100369.56
2022-08-27T19:03:35.678Z,100362.41
2022-08-27T19:06:08.796Z,100364.38
2022-08-27T19:08:38.166Z,100369.56
2022-08-27T19:11:06.761Z,100374.22
2022-08-27T19:13:35.307Z,100368.19
2022-08-27T19:16:06.089Z,100374.00
2022-08-27T19:18:38.843Z,100363.16
2022-08-27T19:21:07.454Z,100367.94
2022-08-27T19:23:36.462Z,100366.50
2022-08-27T19:26:05.283Z,100366.50
2022-08-27T19:28:38.922Z,100375.69
2022-08-27T19:31:09.071Z,100370.25
2022-08-27T19:33:39.172Z,100378.41
2022-08-27T19:36:13.707Z,100384.88
2022-08-27T19:38:44.574Z,100374.00
2022-08-27T19:41:13.934Z,100384.69
2022-08-27T19:43:44.071Z,100381.50
2022-08-27T19:46:17.856Z,100386.94
2022-08-27T19:48:47.483Z,100385.25
2022-08-27T19:51:15.853Z,100390.38
2022-08-27T19:53:43.862Z,100387.22
2022-08-27T19:56:13.975Z,100385.87
2022-08-27T19:58:42.946Z,100390.28
2022-08-27T20:01:11.651Z,100387.56
2022-08-27T20:03:40.175Z,100392.25
2022-08-27T20:06:09.818Z,100387.88
2022-08-27T20:08:37.809Z,100388.12
2022-08-27T20:11:06.099Z,100396.09
2022-08-27T20:13:34.733Z,100389.81
2022-08-27T20:16:04.550Z,100389.56
2022-08-27T20:18:35.177Z,100389.25
2022-08-27T20:21:05.902Z,100394.22
2022-08-27T20:23:35.905Z,100390.16
2022-08-27T20:26:04.301Z,100388.50
2022-08-27T20:28:40.322Z,100383.91
2022-08-27T20:31:09.051Z,100400.19
2022-08-27T20:33:37.150Z,100398.88
2022-08-27T20:36:07.949Z,100398.94
2022-08-27T20:38:37.879Z,100398.50
2022-08-27T20:41:06.674Z,100402.94
2022-08-27T20:43:35.605Z,100401.28
2022-08-27T20:46:05.183Z,100408.03
2022-08-27T20:48:33.256Z,100406.06
2022-08-27T20:51:01.332Z,100411.28
2022-08-27T20:53:29.704Z,100415.16
2022-08-27T20:55:59.118Z,100408.41
2022-08-27T20:58:45.254Z,100413.34
2022-08-27T21:01:13.822Z,100420.00
2022-08-27T21:03:42.145Z,100408.12
2022-08-27T21:06:10.281Z,100416.31
2022-08-27T21:08:39.759Z,100413.72
2022-08-27T21:11:12.455Z,100423.72
2022-08-27T21:13:55.207Z,100424.56
2022-08-27T21:16:24.866Z,100426.72
2022-08-27T21:18:53.921Z,100432.16
2022-08-27T21:21:22.362Z,100420.00
2022-08-27T21:23:50.345Z,100427.56
2022-08-27T21:26:22.805Z,100430.78
2022-08-27T21:28:55.753Z,100431.13
2022-08-27T21:31:25.152Z,100430.47
2022-08-27T21:33:53.177Z,100429.25
2022-08-27T21:36:21.251Z,100435.41
2022-08-27T21:38:49.859Z,100426.63
2022-08-27T21:41:17.826Z,100431.69
2022-08-27T21:43:47.194Z,100431.69
2022-08-27T21:46:15.600Z,100425.78
2022-08-27T21:48:43.577Z,100425.78
2022-08-27T21:51:14.361Z,100431.09
2022-08-27T21:53:47.609Z,100433.97
2022-08-27T21:56:15.720Z,100421.31
2022-08-27T21:58:43.668Z,100420.94
2022-08-27T22:01:13.332Z,100421.44
2022-08-27T22:03:45.280Z,100424.78
2022-08-27T22:06:14.957Z,100423.72
2022-08-27T22:08:43.654Z,100421.88
2022-08-27T22:11:12.975Z,100426.59
2022-08-27T22:13:41.257Z,100419.87
2022-08-27T22:16:09.455Z,100419.22
2022-08-27T22:18:38.964Z,100418.44
2022-08-27T22:21:07.121Z,100425.75
2022-08-27T22:23:35.501Z,100419.13
2022-08-27T22:26:05.405Z,100420.34
2022-08-27T22:28:33.628Z,100422.88
2022-08-27T22:31:01.907Z,100421.56
2022-08-27T22:33:29.982Z,100404.41
2022-08-27T22:35:59.296Z,100408.94
2022-08-27T22:38:27.465Z,100401.75
2022-08-27T22:40:55.517Z,100403.66
2022-08-27T22:43:23.478Z,100401.44
2022-08-27T22:45:51.936Z,100403.25
2022-08-27T22:48:19.909Z,100395.31
2022-08-27T22:50:47.869Z,100394.47
2022-08-27T22:53:17.464Z,100396.75
2022-08-27T22:55:49.944Z,100392.66
2022-08-27T22:58:19.200Z,100397.69
2022-08-27T23:00:54.664Z,100405.34
2022-08-27T23:03:23.080Z,100401.09
2022-08-27T23:05:51.316Z,100401.62
2022-08-27T23:08:22.538Z,100408.25
2022-08-27T23:10:51.801Z,100404.88
2022-08-27T23:13:19.863Z,100406.19
2022-08-27T23:15:47.842Z,100395.91
2022-08-27T23:18:16.567Z,100396.06
2022-08-27T23:20:44.489Z,100395.97
2022-08-27T23:23:12.467Z,100391.84
2022-08-27T23:25:59.680Z,100391.72
2022-08-27T23:28:27.876Z,100401.19
2022-08-27T23:30:56.287Z,100395.44
2022-08-27T23:33:24.316Z,100407.69
2022-08-27T23:35:52.733Z,100399.19
2022-08-27T23:38:22.424Z,100408.00
2022-08-27T23:40:52.200Z,100413.13
2022-08-27T23:43:21.674Z,100425.00
2022-08-27T23:45:49.815Z,100423.97
2022-08-27T23:48:17.760Z,100424.19
2022-08-27T23:50:46.088Z,100434.69
2022-08-27T23:53:14.673Z,100434.06
2022-08-27T23:55:42.664Z,100429.87
2022-08-27T23:58:12.828Z,100443.03
